MiSS Sylvia — WDE5412 — position and weather

sailwx.info

Track history (hours):
 
Tides and Currents Weather Stations Pressure Air Temp Water Temp Dewpoint Dewpoint Depression Visibility Wind Speed Wind Dir Waves Ship Positions

MiSS Sylvia

More information available from US FCC via Universal Licensing System and Coast Guard Vessel Documentation Center.

Last reported at 2014-Aug-21 12:33 UTC. Time now 2014-Aug-21 18:04 UTC.
Position N 30°02' W 090°28'.

Length 20 m; draft 3.4 m.

Type: Towing. MMSI: 367366340.

Date/timePositionNaut miles runAvg speedWind from/ knotsBaromVisibWave heightAir tempDewpointWater temp
2014-Aug-21 12:33N 30°02' W 090°28'0 0.0
2014-Aug-21 11:33N 30°02' W 090°28'1 1.0
2014-Aug-21 10:33N 30°03' W 090°28'0 0.0
2014-Aug-21 09:33N 30°03' W 090°28'0 0.2
2014-Aug-21 08:33N 30°03' W 090°29'0 0.1
2014-Aug-21 07:33N 30°03' W 090°29'4 4.1
2014-Aug-21 06:33N 29°60' W 090°25'5 4.8
2014-Aug-21 05:33N 29°56' W 090°21'2 2.4
2014-Aug-21 04:33N 29°58' W 090°24'6 5.8
2014-Aug-21 03:33N 30°02' W 090°28'0 0.3
2014-Aug-21 02:33N 30°01' W 090°29'0 0.0
2014-Aug-21 01:33N 30°01' W 090°28'1 0.7
2014-Aug-21 00:33N 30°02' W 090°29'1 0.6
2014-Aug-20 23:33N 30°03' W 090°28'0 0.0
2014-Aug-20 22:33N 30°03' W 090°28'2 2.2
2014-Aug-20 21:27N 30°03' W 090°31'4 4.5
2014-Aug-20 20:33N 30°03' W 090°36'13 1.5
2014-Aug-20 12:16N 30°02' W 090°50'3 4.5
2014-Aug-20 11:33N 29°59' W 090°49'5 5.0
2014-Aug-20 10:33N 30°01' W 090°43'5 4.9
2014-Aug-20 09:33N 30°02' W 090°38'5 5.1
2014-Aug-20 08:33N 30°03' W 090°32'3 3.3
2014-Aug-20 07:33N 30°03' W 090°28'1 0.6
2014-Aug-20 06:33N 30°03' W 090°29'1 1.0
2014-Aug-20 05:33N 30°02' W 090°28'5 4.5
2014-Aug-20 04:33N 29°59' W 090°24'4 3.2
2014-Aug-20 03:13N 29°56' W 090°21'10 0.7
2014-Aug-19 12:33N 30°03' W 090°29'1 1.0
2014-Aug-19 11:33N 30°02' W 090°28'1 1.4
2014-Aug-19 10:33N 30°03' W 090°29'1 1.3
2014-Aug-19 09:33N 30°02' W 090°29'0 0.0
2014-Aug-19 08:33N 30°02' W 090°29'0 0.4
2014-Aug-19 07:33N 30°03' W 090°28'0 0.3
2014-Aug-19 06:33N 30°03' W 090°29'5 4.9
2014-Aug-19 05:33N 30°03' W 090°34'0 0.3
2014-Aug-19 04:33N 30°03' W 090°34'3 2.5
2014-Aug-19 03:33N 30°03' W 090°31'3 2.8
2014-Aug-19 02:33N 30°02' W 090°28'1 0.8
2014-Aug-19 01:33N 30°03' W 090°28'1 1.2
2014-Aug-19 00:33N 30°01' W 090°28'0 0.0
2014-Aug-18 23:33N 30°01' W 090°28'0 0.0
2014-Aug-18 22:33N 30°01' W 090°28'9 0.9
2014-Aug-18 11:32N 29°56' W 090°19'7 0.3
2014-Aug-17 12:20N 29°60' W 090°27'2 2.7
2014-Aug-17 11:33N 30°01' W 090°28'1 1.4
2014-Aug-17 10:33N 30°03' W 090°28'0 0.0
2014-Aug-17 09:33N 30°03' W 090°28'0 0.0
2014-Aug-17 08:33N 30°03' W 090°28'1 1.4
2014-Aug-17 07:33N 30°01' W 090°28'0 0.1
2014-Aug-17 06:33N 30°01' W 090°29'0 0.2
2014-Aug-17 05:33N 30°02' W 090°29'1 0.7
2014-Aug-17 04:33N 30°02' W 090°28'5 5.0
2014-Aug-17 03:33N 30°03' W 090°34'5 5.1
2014-Aug-17 02:33N 30°03' W 090°40'5 5.3
2014-Aug-17 01:33N 30°01' W 090°46'4 0.1
2014-Aug-15 10:21N 29°59' W 090°49'4 4.8
2014-Aug-15 09:33N 30°01' W 090°46'5 4.8
2014-Aug-15 08:33N 30°03' W 090°40'1 1.2
2014-Aug-15 07:33N 30°02' W 090°42'8 7.5
2014-Aug-15 06:33N 29°59' W 090°50'8 6.5
2014-Aug-15 05:21N 30°06' W 090°55'16 1.2
2014-Aug-14 16:09N 30°02' W 090°36'1 1.6
2014-Aug-14 15:33N 30°03' W 090°35'2 2.1
2014-Aug-14 14:33N 30°03' W 090°33'2 1.8
2014-Aug-14 13:17N 30°03' W 090°30'1 1.7
2014-Aug-14 12:33N 30°03' W 090°29'0 0.4
2014-Aug-14 11:33N 30°03' W 090°28'0 0.1
2014-Aug-14 10:33N 30°03' W 090°28'0 0.2
2014-Aug-14 09:33N 30°03' W 090°29'4 4.5
2014-Aug-14 08:33N 30°03' W 090°34'1 0.7
2014-Aug-14 07:34N 30°03' W 090°35'0 0.1
2014-Aug-14 06:34N 30°03' W 090°34'3 2.7
2014-Aug-14 05:33N 30°03' W 090°31'3 2.7
2014-Aug-14 04:33N 30°02' W 090°28'0 0.1
2014-Aug-14 03:33N 30°02' W 090°28'0 0.0
2014-Aug-14 02:33N 30°02' W 090°28'0 0.1
2014-Aug-14 01:33N 30°02' W 090°28'0 0.3
2014-Aug-14 00:33N 30°01' W 090°29'0 0.4
2014-Aug-13 23:33N 30°02' W 090°29'0 0.1
2014-Aug-13 22:33N 30°02' W 090°28'0 0.0
2014-Aug-12 12:33N 30°02' W 090°28'  
Track history (hours):
 
Tides and Currents Weather Stations Pressure Air Temp Water Temp Dewpoint Dewpoint Depression Visibility Wind Speed Wind Dir Waves Ship Positions

MiSS Sylvia

More information available from US FCC via Universal Licensing System and Coast Guard Vessel Documentation Center.

Last reported at 2014-Aug-21 12:33 UTC. Time now 2014-Aug-21 18:04 UTC.
Position N 30°02' W 090°28'.

Length 20 m; draft 3.4 m.

Type: Towing. MMSI: 367366340.

Date/timePositionNaut miles runAvg speedWind from/ knotsBaromVisibWave heightAir tempDewpointWater temp
2014-Aug-21 12:33N 30°02' W 090°28'0 0.0
2014-Aug-21 11:33N 30°02' W 090°28'1 1.0
2014-Aug-21 10:33N 30°03' W 090°28'0 0.0
2014-Aug-21 09:33N 30°03' W 090°28'0 0.2
2014-Aug-21 08:33N 30°03' W 090°29'0 0.1
2014-Aug-21 07:33N 30°03' W 090°29'4 4.1
2014-Aug-21 06:33N 29°60' W 090°25'5 4.8
2014-Aug-21 05:33N 29°56' W 090°21'2 2.4
2014-Aug-21 04:33N 29°58' W 090°24'6 5.8
2014-Aug-21 03:33N 30°02' W 090°28'0 0.3
2014-Aug-21 02:33N 30°01' W 090°29'0 0.0
2014-Aug-21 01:33N 30°01' W 090°28'1 0.7
2014-Aug-21 00:33N 30°02' W 090°29'1 0.6
2014-Aug-20 23:33N 30°03' W 090°28'0 0.0
2014-Aug-20 22:33N 30°03' W 090°28'2 2.2
2014-Aug-20 21:27N 30°03' W 090°31'4 4.5
2014-Aug-20 20:33N 30°03' W 090°36'13 1.5
2014-Aug-20 12:16N 30°02' W 090°50'3 4.5
2014-Aug-20 11:33N 29°59' W 090°49'5 5.0
2014-Aug-20 10:33N 30°01' W 090°43'5 4.9
2014-Aug-20 09:33N 30°02' W 090°38'5 5.1
2014-Aug-20 08:33N 30°03' W 090°32'3 3.3
2014-Aug-20 07:33N 30°03' W 090°28'1 0.6
2014-Aug-20 06:33N 30°03' W 090°29'1 1.0
2014-Aug-20 05:33N 30°02' W 090°28'5 4.5
2014-Aug-20 04:33N 29°59' W 090°24'4 3.2
2014-Aug-20 03:13N 29°56' W 090°21'10 0.7
2014-Aug-19 12:33N 30°03' W 090°29'1 1.0
2014-Aug-19 11:33N 30°02' W 090°28'1 1.4
2014-Aug-19 10:33N 30°03' W 090°29'1 1.3
2014-Aug-19 09:33N 30°02' W 090°29'0 0.0
2014-Aug-19 08:33N 30°02' W 090°29'0 0.4
2014-Aug-19 07:33N 30°03' W 090°28'0 0.3
2014-Aug-19 06:33N 30°03' W 090°29'5 4.9
2014-Aug-19 05:33N 30°03' W 090°34'0 0.3
2014-Aug-19 04:33N 30°03' W 090°34'3 2.5
2014-Aug-19 03:33N 30°03' W 090°31'3 2.8
2014-Aug-19 02:33N 30°02' W 090°28'1 0.8
2014-Aug-19 01:33N 30°03' W 090°28'1 1.2
2014-Aug-19 00:33N 30°01' W 090°28'0 0.0
2014-Aug-18 23:33N 30°01' W 090°28'0 0.0
2014-Aug-18 22:33N 30°01' W 090°28'9 0.9
2014-Aug-18 11:32N 29°56' W 090°19'7 0.3
2014-Aug-17 12:20N 29°60' W 090°27'2 2.7
2014-Aug-17 11:33N 30°01' W 090°28'1 1.4
2014-Aug-17 10:33N 30°03' W 090°28'0 0.0
2014-Aug-17 09:33N 30°03' W 090°28'0 0.0
2014-Aug-17 08:33N 30°03' W 090°28'1 1.4
2014-Aug-17 07:33N 30°01' W 090°28'0 0.1
2014-Aug-17 06:33N 30°01' W 090°29'0 0.2
2014-Aug-17 05:33N 30°02' W 090°29'1 0.7
2014-Aug-17 04:33N 30°02' W 090°28'5 5.0
2014-Aug-17 03:33N 30°03' W 090°34'5 5.1
2014-Aug-17 02:33N 30°03' W 090°40'5 5.3
2014-Aug-17 01:33N 30°01' W 090°46'4 0.1
2014-Aug-15 10:21N 29°59' W 090°49'4 4.8
2014-Aug-15 09:33N 30°01' W 090°46'5 4.8
2014-Aug-15 08:33N 30°03' W 090°40'1 1.2
2014-Aug-15 07:33N 30°02' W 090°42'8 7.5
2014-Aug-15 06:33N 29°59' W 090°50'8 6.5
2014-Aug-15 05:21N 30°06' W 090°55'16 1.2
2014-Aug-14 16:09N 30°02' W 090°36'1 1.6
2014-Aug-14 15:33N 30°03' W 090°35'2 2.1
2014-Aug-14 14:33N 30°03' W 090°33'2 1.8
2014-Aug-14 13:17N 30°03' W 090°30'1 1.7
2014-Aug-14 12:33N 30°03' W 090°29'0 0.4
2014-Aug-14 11:33N 30°03' W 090°28'0 0.1
2014-Aug-14 10:33N 30°03' W 090°28'0 0.2
2014-Aug-14 09:33N 30°03' W 090°29'4 4.5
2014-Aug-14 08:33N 30°03' W 090°34'1 0.7
2014-Aug-14 07:34N 30°03' W 090°35'0 0.1
2014-Aug-14 06:34N 30°03' W 090°34'3 2.7
2014-Aug-14 05:33N 30°03' W 090°31'3 2.7
2014-Aug-14 04:33N 30°02' W 090°28'0 0.1
2014-Aug-14 03:33N 30°02' W 090°28'0 0.0
2014-Aug-14 02:33N 30°02' W 090°28'0 0.1
2014-Aug-14 01:33N 30°02' W 090°28'0 0.3
2014-Aug-14 00:33N 30°01' W 090°29'0 0.4
2014-Aug-13 23:33N 30°02' W 090°29'0 0.1
2014-Aug-13 22:33N 30°02' W 090°28'0 0.0
2014-Aug-12 12:33N 30°02' W 090°28'  

Dump ship's entire track history